Meteorología y climatología de Navarra
Datos de la estación - Meteo Navarra

Estación de Aoiz GN

Altitud 534 m.


Datos desde el 12/09/2019 hasta el 13/09/2019 en horario solar
Los datos son PROVISIONALES

Anterior Página 1 de 1 Siguiente Descargar: Formato para Excel 2000 o superior   Formato csv   Formato para OpenOffice Calc
Fecha Temperatura Humedad relativa Radiación global Insolación Precipitación Vel. viento 10 m Vel. viento 10 m Dir. viento 10 m
ºC % W/m² s l/m² m/s km/h º
12/09/2019 0:00 15.1 55 0.0 0 0.0 2.0 7.0 313
12/09/2019 0:10 15.1 55 0.0 0 0.0 2.1 7.4 352
12/09/2019 0:20 15.1 55 0.0 0 0.0 1.6 5.8 359
12/09/2019 0:30 14.9 56 0.0 0 0.0 1.4 4.9 18
12/09/2019 0:40 14.7 56 0.0 0 0.0 1.1 3.8 321
12/09/2019 0:50 13.7 60 0.0 0 0.0 1.4 4.9 323
12/09/2019 1:00 14.0 59 0.0 0 0.0 1.0 3.6 332
12/09/2019 1:10 13.0 63 0.0 0 0.0 0.2 0.6 251
12/09/2019 1:20 13.0 63 0.0 0 0.0 0.3 1.0 298
12/09/2019 1:30 12.5 66 0.0 0 0.0 0.4 1.4 138
12/09/2019 1:40 12.2 67 0.0 0 0.0 0.3 0.9 187
12/09/2019 1:50 11.8 68 0.0 0 0.0 1.0 3.6 99
12/09/2019 2:00 11.6 70 0.0 0 0.0 0.6 2.2 73
12/09/2019 2:10 12.4 67 0.0 0 0.0 1.1 3.8 237
12/09/2019 2:20 12.4 67 0.0 0 0.0 2.5 8.9 290
12/09/2019 2:30 12.1 68 0.0 0 0.0 0.8 2.7 354
12/09/2019 2:40 11.3 71 0.0 0 0.0 1.0 3.5 148
12/09/2019 2:50 11.2 72 0.0 0 0.0 0.5 1.9 104
12/09/2019 3:00 10.8 74 0.0 0 0.0 1.4 5.1 32
12/09/2019 3:10 10.9 74 0.0 0 0.0 0.8 3.0 31
12/09/2019 3:20 10.4 75 0.0 0 0.0 1.3 4.8 35
12/09/2019 3:30 10.2 77 0.0 0 0.0 1.1 4.0 50
12/09/2019 3:40 10.6 76 0.0 0 0.0 0.6 2.3 87
12/09/2019 3:50 10.5 77 0.0 0 0.0 0.9 3.2 30
12/09/2019 4:00 10.2 77 0.0 0 0.0 0.7 2.4 28
12/09/2019 4:10 10.7 77 0.0 0 0.0 0.2 0.5 48
12/09/2019 4:20 10.7 77 0.0 0 0.0 0.0 0.1 32
12/09/2019 4:30 10.4 78 0.0 0 0.0 0.4 1.6 22
12/09/2019 4:40 10.0 80 0.0 0 0.0 0.4 1.3 22
12/09/2019 4:50 9.6 80 0.0 0 0.0 0.1 0.2 22
12/09/2019 5:00 9.6 82 0.0 0 0.0 0.0 0.1 25
12/09/2019 5:10 9.0 84 0.0 0 0.0 0.5 1.7 26
12/09/2019 5:20 9.2 85 0.0 0 0.0 0.0 0.0 26
12/09/2019 5:30 9.7 84 0.0 0 0.0 0.4 1.4 25
12/09/2019 5:40 9.6 83 0.0 0 0.0 0.0 0.1 18
12/09/2019 5:50 9.2 84 0.0 0 0.0 0.4 1.5 18
12/09/2019 6:00 9.2 86 1.7 0 0.0 1.2 4.3 24
12/09/2019 6:10 9.9 84 18.1 0 0.0 1.0 3.5 40
12/09/2019 6:20 9.8 83 42.7 252 0.0 0.2 0.7 41
12/09/2019 6:30 10.6 80 86.7 600 0.0 0.4 1.4 41
12/09/2019 6:40 11.5 78 116.7 600 0.0 0.6 2.2 41
12/09/2019 6:50 12.5 72 145.5 600 0.0 0.1 0.3 40
12/09/2019 7:00 12.1 73 176.2 600 0.0 0.0 0.1 0
12/09/2019 7:10 12.8 71 208.0 600 0.0 0.0 0.1 9
12/09/2019 7:20 13.2 69 241.7 600 0.0 0.4 1.3 102
12/09/2019 7:30 13.9 68 274.6 600 0.0 0.7 2.7 107
12/09/2019 7:40 14.3 66 306.7 600 0.0 0.8 2.8 106
12/09/2019 7:50 15.3 64 338.3 600 0.0 0.8 2.8 108
12/09/2019 8:00 15.8 62 364.9 600 0.0 1.0 3.4 117
12/09/2019 8:10 15.5 63 384.2 600 0.0 0.9 3.1 150
12/09/2019 8:20 15.3 64 426.8 600 0.0 0.6 2.0 198
12/09/2019 8:30 16.0 62 455.0 600 0.0 0.9 3.1 153
12/09/2019 8:40 16.4 61 489.8 600 0.0 1.0 3.6 194
12/09/2019 8:50 16.3 61 513.8 600 0.0 1.5 5.2 242
12/09/2019 9:00 17.0 58 540.4 600 0.0 1.4 5.0 235
12/09/2019 9:10 17.6 57 568.9 600 0.0 1.3 4.5 190
12/09/2019 9:20 17.8 56 599.8 600 0.0 1.5 5.5 200
12/09/2019 9:30 18.2 55 623.4 600 0.0 1.0 3.5 189
12/09/2019 9:40 19.1 52 647.5 600 0.0 1.4 4.9 258
12/09/2019 9:50 19.3 51 664.2 600 0.0 1.1 4.1 229
12/09/2019 10:00 19.9 49 690.3 600 0.0 1.2 4.4 214
12/09/2019 10:10 20.3 48 706.6 600 0.0 1.3 4.6 215
12/09/2019 10:20 21.0 46 726.0 600 0.0 0.9 3.2 243
12/09/2019 10:30 21.5 45 744.9 600 0.0 1.3 4.5 225
12/09/2019 10:40 22.4 43 758.1 600 0.0 1.2 4.1 182
12/09/2019 10:50 23.1 41 770.7 600 0.0 0.9 3.2 174
12/09/2019 11:00 23.3 41 782.7 600 0.0 1.5 5.4 203
12/09/2019 11:10 23.8 40 794.3 600 0.0 1.6 5.9 201
12/09/2019 11:20 24.2 38 803.0 600 0.0 1.8 6.5 221
12/09/2019 11:30 24.7 36 810.0 600 0.0 1.8 6.4 238
12/09/2019 11:40 25.0 35 813.0 600 0.0 0.8 2.8 235
12/09/2019 11:50 25.7 34 817.0 600 0.0 2.1 7.5 251
12/09/2019 12:00 26.6 31 821.0 600 0.0 1.4 4.9 171
12/09/2019 12:10 26.8 30 820.0 600 0.0 0.9 3.3 197
12/09/2019 12:20 27.1 30 817.0 600 0.0 1.8 6.4 247
12/09/2019 12:30 26.7 31 815.0 600 0.0 1.0 3.7 223
12/09/2019 12:40 27.5 30 811.0 600 0.0 2.2 7.9 216
12/09/2019 12:50 27.3 30 808.0 600 0.0 1.7 6.1 207
12/09/2019 13:00 28.1 28 795.4 600 0.0 1.7 6.1 190
12/09/2019 13:10 27.8 29 787.5 600 0.0 2.1 7.4 187
12/09/2019 13:20 28.0 29 777.2 600 0.0 2.4 8.5 210
12/09/2019 13:30 28.2 28 761.5 600 0.0 1.8 6.4 212
12/09/2019 13:40 28.3 28 750.5 600 0.0 2.6 9.5 213
12/09/2019 13:50 28.5 27 732.9 600 0.0 1.7 6.2 172
12/09/2019 14:00 28.8 27 713.3 600 0.0 2.4 8.7 260
12/09/2019 14:10 28.9 27 697.5 600 0.0 3.2 11.4 253
12/09/2019 14:20 29.1 26 675.6 600 0.0 2.3 8.3 254
12/09/2019 14:30 28.6 30 649.9 600 0.0 2.2 7.9 254
12/09/2019 14:40 27.9 36 627.8 600 0.0 3.7 13.2 12
12/09/2019 14:50 27.0 38 604.7 600 0.0 4.7 16.9 7
12/09/2019 15:00 26.6 39 580.8 600 0.0 4.2 15.1 11
12/09/2019 15:10 26.4 40 555.0 600 0.0 4.7 16.7 7
12/09/2019 15:20 26.1 40 529.7 600 0.0 4.4 15.7 6
12/09/2019 15:30 26.0 40 500.6 600 0.0 3.7 13.2 4
12/09/2019 15:40 26.0 40 472.8 600 0.0 3.7 13.4 8
12/09/2019 15:50 25.7 41 444.6 600 0.0 4.0 14.3 7
12/09/2019 16:00 25.4 42 414.5 600 0.0 4.2 15.3 10
12/09/2019 16:10 25.2 43 383.3 600 0.0 4.7 16.8 8
12/09/2019 16:20 24.9 44 351.2 600 0.0 4.4 15.8 5
12/09/2019 16:30 24.7 45 320.1 600 0.0 4.0 14.4 3
12/09/2019 16:40 24.5 45 286.9 600 0.0 4.1 14.8 1
12/09/2019 16:50 24.6 44 253.5 600 0.0 3.5 12.6 0
12/09/2019 17:00 24.3 45 220.5 600 0.0 3.2 11.6 1
12/09/2019 17:10 24.0 44 189.2 600 0.0 4.1 14.8 3
12/09/2019 17:20 23.8 45 157.6 600 0.0 3.1 11.1 357
12/09/2019 17:30 23.8 45 125.9 600 0.0 2.2 7.8 351
12/09/2019 17:40 23.3 47 96.8 600 0.0 2.8 10.2 1
12/09/2019 17:50 22.9 48 69.8 600 0.0 3.2 11.4 349
12/09/2019 18:00 22.3 49 38.0 378 0.0 3.0 10.9 347
12/09/2019 18:10 21.7 51 5.5 0 0.0 3.7 13.3 355
12/09/2019 18:20 21.4 53 0.0 0 0.0 4.3 15.4 5
12/09/2019 18:30 21.0 55 0.0 0 0.0 5.4 19.4 9
12/09/2019 18:40 20.8 56 0.0 0 0.0 4.2 15.2 8
12/09/2019 18:50 20.7 57 0.0 0 0.0 4.8 17.1 11
12/09/2019 19:00 20.5 58 0.0 0 0.0 4.9 17.7 6
12/09/2019 19:10 20.4 58 0.0 0 0.0 5.6 20.1 9
12/09/2019 19:20 20.3 58 0.0 0 0.0 6.0 21.6 9
12/09/2019 19:30 20.2 59 0.0 0 0.0 5.8 20.8 12
12/09/2019 19:40 20.0 59 0.0 0 0.0 6.0 21.5 9
12/09/2019 19:50 19.8 59 0.0 0 0.0 5.7 20.5 9
12/09/2019 20:00 19.8 59 0.0 0 0.0 6.0 21.5 11
12/09/2019 20:10 19.7 59 0.0 0 0.0 5.6 20.0 9
12/09/2019 20:20 19.6 59 0.0 0 0.0 5.1 18.2 6
12/09/2019 20:30 19.4 59 0.0 0 0.0 4.2 15.3 9
12/09/2019 20:40 19.3 60 0.0 0 0.0 4.4 15.9 6
12/09/2019 20:50 19.2 60 0.0 0 0.0 4.0 14.2 8
12/09/2019 21:00 19.1 60 0.0 0 0.0 4.4 15.8 13
12/09/2019 21:10 19.1 59 0.0 0 0.0 3.8 13.8 9
12/09/2019 21:20 19.0 60 0.0 0 0.0 3.1 11.3 4
12/09/2019 21:30 18.8 61 0.0 0 0.0 1.1 4.0 348
12/09/2019 21:40 18.6 61 0.0 0 0.0 1.5 5.4 350
12/09/2019 21:50 18.7 61 0.0 0 0.0 1.7 6.1 1
12/09/2019 22:00 18.6 60 0.0 0 0.0 0.5 1.7 233
12/09/2019 22:10 18.6 60 0.0 0 0.0 0.1 0.2 304
12/09/2019 22:20 17.8 63 0.0 0 0.0 0.7 2.4 45
12/09/2019 22:30 16.7 67 0.0 0 0.0 0.6 2.3 78
12/09/2019 22:40 16.5 67 0.0 0 0.0 0.4 1.5 78
12/09/2019 22:50 16.2 69 0.0 0 0.0 0.4 1.4 78
12/09/2019 23:00 15.9 70 0.0 0 0.0 0.2 0.5 78
12/09/2019 23:10 15.9 70 0.0 0 0.0 0.3 1.0 78
12/09/2019 23:20 15.8 70 0.0 0 0.0 0.0 0.0 0
12/09/2019 23:30 15.9 69 0.0 0 0.0 0.0 0.1 78
12/09/2019 23:40 15.3 71 0.0 0 0.0 0.0 0.0 78
12/09/2019 23:50 14.8 74 0.0 0 0.0 0.3 1.2 78
Anterior Página 1 de 1 Siguiente

NOTA: Tipo de datos según el color:
   - Valores diarios o 10 minutos correctos
   - Valores diarios calculados a partir de un número de datos 10 minutos menor que 144 y mayor que 120, o de un número de datos semihorarios menor que 48 y mayor que 40 (caso de las estaciones de Riegos de Navarra y del MARM)
   - Valores diez minutos estimados


Contacto        Enlaces        Aviso legal